sensor_id;sensor_type;location;lat;lon;timestamp;pressure;altitude;pressure_sealevel;temperature
69785;BMP280;14177;51.520;6.764;2023-11-19T00:00:18;100710.03;;;11.15
69785;BMP280;14177;51.520;6.764;2023-11-19T00:02:45;100713.56;;;11.37
69785;BMP280;14177;51.520;6.764;2023-11-19T00:05:13;100705.50;;;11.44
69785;BMP280;14177;51.520;6.764;2023-11-19T00:07:40;100702.50;;;11.56
69785;BMP280;14177;51.520;6.764;2023-11-19T00:10:16;100712.75;;;11.61
69785;BMP280;14177;51.520;6.764;2023-11-19T00:12:48;100700.63;;;11.60
69785;BMP280;14177;51.520;6.764;2023-11-19T00:15:18;100701.41;;;11.63
69785;BMP280;14177;51.520;6.764;2023-11-19T00:17:47;100699.41;;;11.70
69785;BMP280;14177;51.520;6.764;2023-11-19T00:20:19;100709.50;;;11.77
69785;BMP280;14177;51.520;6.764;2023-11-19T00:22:49;100689.38;;;11.82
69785;BMP280;14177;51.520;6.764;2023-11-19T00:25:20;100690.94;;;12.09
69785;BMP280;14177;51.520;6.764;2023-11-19T00:27:52;100690.47;;;12.21
69785;BMP280;14177;51.520;6.764;2023-11-19T00:30:21;100681.28;;;12.34
69785;BMP280;14177;51.520;6.764;2023-11-19T00:32:47;100670.34;;;12.46
69785;BMP280;14177;51.520;6.764;2023-11-19T00:35:15;100667.34;;;12.56
69785;BMP280;14177;51.520;6.764;2023-11-19T00:37:43;100669.63;;;12.64
69785;BMP280;14177;51.520;6.764;2023-11-19T00:40:10;100650.09;;;12.74
69785;BMP280;14177;51.520;6.764;2023-11-19T00:42:38;100661.16;;;12.79
69785;BMP280;14177;51.520;6.764;2023-11-19T00:45:06;100656.75;;;12.81
69785;BMP280;14177;51.520;6.764;2023-11-19T00:47:37;100664.34;;;12.85
69785;BMP280;14177;51.520;6.764;2023-11-19T00:50:04;100652.88;;;12.91
69785;BMP280;14177;51.520;6.764;2023-11-19T00:52:31;100648.38;;;12.94
69785;BMP280;14177;51.520;6.764;2023-11-19T00:54:58;100659.66;;;12.95
69785;BMP280;14177;51.520;6.764;2023-11-19T00:57:25;100636.13;;;12.96
69785;BMP280;14177;51.520;6.764;2023-11-19T00:59:53;100625.41;;;13.02
69785;BMP280;14177;51.520;6.764;2023-11-19T01:02:20;100622.75;;;13.04
69785;BMP280;14177;51.520;6.764;2023-11-19T01:04:47;100645.19;;;13.08
69785;BMP280;14177;51.520;6.764;2023-11-19T01:07:14;100648.41;;;13.13
69785;BMP280;14177;51.520;6.764;2023-11-19T01:09:42;100644.75;;;13.17
69785;BMP280;14177;51.520;6.764;2023-11-19T01:12:09;100643.03;;;13.17
69785;BMP280;14177;51.520;6.764;2023-11-19T01:14:39;100634.34;;;13.17
69785;BMP280;14177;51.520;6.764;2023-11-19T01:17:06;100641.25;;;13.18
69785;BMP280;14177;51.520;6.764;2023-11-19T01:19:34;100648.38;;;13.14
69785;BMP280;14177;51.520;6.764;2023-11-19T01:22:01;100650.72;;;13.20
69785;BMP280;14177;51.520;6.764;2023-11-19T01:24:28;100652.31;;;13.23
69785;BMP280;14177;51.520;6.764;2023-11-19T01:26:57;100655.00;;;13.21
69785;BMP280;14177;51.520;6.764;2023-11-19T01:29:26;100652.59;;;13.17
69785;BMP280;14177;51.520;6.764;2023-11-19T01:31:53;100647.50;;;13.14
69785;BMP280;14177;51.520;6.764;2023-11-19T01:34:20;100662.09;;;13.18
69785;BMP280;14177;51.520;6.764;2023-11-19T01:36:47;100662.72;;;13.24
69785;BMP280;14177;51.520;6.764;2023-11-19T01:39:16;100662.56;;;13.27
69785;BMP280;14177;51.520;6.764;2023-11-19T01:41:43;100645.22;;;13.26
69785;BMP280;14177;51.520;6.764;2023-11-19T01:44:10;100640.19;;;13.22
69785;BMP280;14177;51.520;6.764;2023-11-19T01:46:45;100644.50;;;13.23
69785;BMP280;14177;51.520;6.764;2023-11-19T01:49:19;100640.16;;;13.23
69785;BMP280;14177;51.520;6.764;2023-11-19T01:51:48;100632.09;;;13.28
69785;BMP280;14177;51.520;6.764;2023-11-19T01:54:15;100632.09;;;13.28
69785;BMP280;14177;51.520;6.764;2023-11-19T01:56:43;100638.97;;;13.30
69785;BMP280;14177;51.520;6.764;2023-11-19T01:59:12;100630.16;;;13.32
69785;BMP280;14177;51.520;6.764;2023-11-19T02:01:41;100623.19;;;13.33
69785;BMP280;14177;51.520;6.764;2023-11-19T02:04:09;100633.41;;;13.37
69785;BMP280;14177;51.520;6.764;2023-11-19T02:06:41;100616.06;;;13.36
69785;BMP280;14177;51.520;6.764;2023-11-19T02:09:09;100598.38;;;13.43
69785;BMP280;14177;51.520;6.764;2023-11-19T02:11:39;100588.13;;;13.38
69785;BMP280;14177;51.520;6.764;2023-11-19T02:14:07;100595.91;;;13.40
69785;BMP280;14177;51.520;6.764;2023-11-19T02:16:34;100572.41;;;13.40
69785;BMP280;14177;51.520;6.764;2023-11-19T02:19:01;100594.22;;;13.39
69785;BMP280;14177;51.520;6.764;2023-11-19T02:21:29;100604.66;;;13.39
69785;BMP280;14177;51.520;6.764;2023-11-19T02:23:56;100600.22;;;13.41
69785;BMP280;14177;51.520;6.764;2023-11-19T02:27:04;100609.50;;;13.46
69785;BMP280;14177;51.520;6.764;2023-11-19T02:29:34;100591.25;;;13.46
69785;BMP280;14177;51.520;6.764;2023-11-19T02:32:01;100580.81;;;13.46
69785;BMP280;14177;51.520;6.764;2023-11-19T02:34:29;100598.28;;;13.44
69785;BMP280;14177;51.520;6.764;2023-11-19T02:36:55;100600.91;;;13.44
69785;BMP280;14177;51.520;6.764;2023-11-19T02:39:23;100595.63;;;13.46
69785;BMP280;14177;51.520;6.764;2023-11-19T02:41:50;100593.06;;;13.44
69785;BMP280;14177;51.520;6.764;2023-11-19T02:44:18;100589.63;;;13.44
69785;BMP280;14177;51.520;6.764;2023-11-19T02:46:45;100586.94;;;13.45
69785;BMP280;14177;51.520;6.764;2023-11-19T02:49:14;100584.34;;;13.45
69785;BMP280;14177;51.520;6.764;2023-11-19T02:51:42;100576.59;;;13.44
69785;BMP280;14177;51.520;6.764;2023-11-19T02:54:10;100575.44;;;13.49
69785;BMP280;14177;51.520;6.764;2023-11-19T02:56:37;100576.44;;;13.47
69785;BMP280;14177;51.520;6.764;2023-11-19T02:59:04;100577.00;;;13.53
69785;BMP280;14177;51.520;6.764;2023-11-19T03:01:38;100578.56;;;13.57
69785;BMP280;14177;51.520;6.764;2023-11-19T03:04:10;100556.00;;;13.56
69785;BMP280;14177;51.520;6.764;2023-11-19T03:06:39;100567.41;;;13.54
69785;BMP280;14177;51.520;6.764;2023-11-19T03:09:06;100574.44;;;13.52
69785;BMP280;14177;51.520;6.764;2023-11-19T03:11:37;100579.59;;;13.53
69785;BMP280;14177;51.520;6.764;2023-11-19T03:14:04;100568.41;;;13.51
69785;BMP280;14177;51.520;6.764;2023-11-19T03:16:31;100566.56;;;13.53
69785;BMP280;14177;51.520;6.764;2023-11-19T03:18:59;100562.25;;;13.52
69785;BMP280;14177;51.520;6.764;2023-11-19T03:21:29;100571.91;;;13.50
69785;BMP280;14177;51.520;6.764;2023-11-19T03:23:57;100567.75;;;13.46
69785;BMP280;14177;51.520;6.764;2023-11-19T03:26:27;100578.56;;;13.39
69785;BMP280;14177;51.520;6.764;2023-11-19T03:28:54;100585.88;;;13.31
69785;BMP280;14177;51.520;6.764;2023-11-19T03:31:23;100566.97;;;13.26
69785;BMP280;14177;51.520;6.764;2023-11-19T03:33:51;100573.44;;;13.18
69785;BMP280;14177;51.520;6.764;2023-11-19T03:36:18;100573.78;;;13.10
69785;BMP280;14177;51.520;6.764;2023-11-19T03:38:45;100566.22;;;13.04
69785;BMP280;14177;51.520;6.764;2023-11-19T03:41:14;100577.72;;;13.00
69785;BMP280;14177;51.520;6.764;2023-11-19T03:43:41;100589.84;;;13.01
69785;BMP280;14177;51.520;6.764;2023-11-19T03:46:21;100589.19;;;12.96
69785;BMP280;14177;51.520;6.764;2023-11-19T03:48:49;100579.06;;;12.89
69785;BMP280;14177;51.520;6.764;2023-11-19T03:51:16;100593.84;;;12.88
69785;BMP280;14177;51.520;6.764;2023-11-19T03:53:47;100581.94;;;12.83
69785;BMP280;14177;51.520;6.764;2023-11-19T03:56:14;100584.53;;;12.83
69785;BMP280;14177;51.520;6.764;2023-11-19T03:58:41;100588.25;;;12.77
69785;BMP280;14177;51.520;6.764;2023-11-19T04:01:12;100593.75;;;12.71
69785;BMP280;14177;51.520;6.764;2023-11-19T04:03:42;100592.34;;;12.63
69785;BMP280;14177;51.520;6.764;2023-11-19T04:06:12;100584.66;;;12.60
69785;BMP280;14177;51.520;6.764;2023-11-19T04:08:39;100590.00;;;12.57
69785;BMP280;14177;51.520;6.764;2023-11-19T04:11:06;100585.78;;;12.54
69785;BMP280;14177;51.520;6.764;2023-11-19T04:13:35;100581.78;;;12.46
69785;BMP280;14177;51.520;6.764;2023-11-19T04:16:02;100582.03;;;12.40
69785;BMP280;14177;51.520;6.764;2023-11-19T04:18:30;100583.09;;;12.36
69785;BMP280;14177;51.520;6.764;2023-11-19T04:20:57;100600.59;;;12.32
69785;BMP280;14177;51.520;6.764;2023-11-19T04:23:24;100594.41;;;12.35
69785;BMP280;14177;51.520;6.764;2023-11-19T04:25:51;100599.50;;;12.38
69785;BMP280;14177;51.520;6.764;2023-11-19T04:28:18;100599.63;;;12.35
69785;BMP280;14177;51.520;6.764;2023-11-19T04:30:45;100604.97;;;12.32
69785;BMP280;14177;51.520;6.764;2023-11-19T04:33:12;100601.56;;;12.30
69785;BMP280;14177;51.520;6.764;2023-11-19T04:35:39;100603.28;;;12.31
69785;BMP280;14177;51.520;6.764;2023-11-19T04:38:06;100604.84;;;12.35
69785;BMP280;14177;51.520;6.764;2023-11-19T04:40:34;100604.97;;;12.32
69785;BMP280;14177;51.520;6.764;2023-11-19T04:43:01;100599.69;;;12.33
69785;BMP280;14177;51.520;6.764;2023-11-19T04:45:28;100604.97;;;12.32
69785;BMP280;14177;51.520;6.764;2023-11-19T04:47:55;100604.22;;;12.28
69785;BMP280;14177;51.520;6.764;2023-11-19T04:50:22;100603.50;;;12.25
69785;BMP280;14177;51.520;6.764;2023-11-19T04:52:49;100609.56;;;12.25
69785;BMP280;14177;51.520;6.764;2023-11-19T04:55:16;100609.38;;;12.30
69785;BMP280;14177;51.520;6.764;2023-11-19T04:57:43;100614.53;;;12.31
69785;BMP280;14177;51.520;6.764;2023-11-19T05:00:11;100616.16;;;12.34
69785;BMP280;14177;51.520;6.764;2023-11-19T05:02:41;100616.69;;;12.42
69785;BMP280;14177;51.520;6.764;2023-11-19T05:05:08;100618.13;;;12.49
69785;BMP280;14177;51.520;6.764;2023-11-19T05:07:36;100614.47;;;12.53
69785;BMP280;14177;51.520;6.764;2023-11-19T05:10:04;100620.44;;;12.56
69785;BMP280;14177;51.520;6.764;2023-11-19T05:12:32;100627.22;;;12.60
69785;BMP280;14177;51.520;6.764;2023-11-19T05:15:00;100619.16;;;12.66
69785;BMP280;14177;51.520;6.764;2023-11-19T05:17:27;100606.00;;;12.69
69785;BMP280;14177;51.520;6.764;2023-11-19T05:19:54;100625.97;;;12.69
69785;BMP280;14177;51.520;6.764;2023-11-19T05:22:21;100614.72;;;12.68
69785;BMP280;14177;51.520;6.764;2023-11-19T05:24:48;100621.78;;;12.65
69785;BMP280;14177;51.520;6.764;2023-11-19T05:27:16;100610.47;;;12.66
69785;BMP280;14177;51.520;6.764;2023-11-19T05:29:43;100608.78;;;12.65
69785;BMP280;14177;51.520;6.764;2023-11-19T05:32:10;100605.13;;;12.69
69785;BMP280;14177;51.520;6.764;2023-11-19T05:34:38;100617.44;;;12.65
69785;BMP280;14177;51.520;6.764;2023-11-19T05:37:18;100626.22;;;12.63
69785;BMP280;14177;51.520;6.764;2023-11-19T05:39:45;100606.28;;;12.62
69785;BMP280;14177;51.520;6.764;2023-11-19T05:42:12;100613.53;;;12.55
69785;BMP280;14177;51.520;6.764;2023-11-19T05:44:39;100608.44;;;12.52
69785;BMP280;14177;51.520;6.764;2023-11-19T05:47:07;100612.66;;;12.55
69785;BMP280;14177;51.520;6.764;2023-11-19T05:49:35;100609.41;;;12.50
69785;BMP280;14177;51.520;6.764;2023-11-19T05:52:02;100624.13;;;12.51
69785;BMP280;14177;51.520;6.764;2023-11-19T05:54:30;100632.06;;;12.48
69785;BMP280;14177;51.520;6.764;2023-11-19T05:56:58;100622.63;;;12.45
69785;BMP280;14177;51.520;6.764;2023-11-19T05:59:25;100617.66;;;12.39
69785;BMP280;14177;51.520;6.764;2023-11-19T06:01:52;100621.09;;;12.40
69785;BMP280;14177;51.520;6.764;2023-11-19T06:04:19;100609.94;;;12.38
69785;BMP280;14177;51.520;6.764;2023-11-19T06:06:46;100602.25;;;12.35
69785;BMP280;14177;51.520;6.764;2023-11-19T06:09:13;100596.25;;;12.33
69785;BMP280;14177;51.520;6.764;2023-11-19T06:11:41;100602.25;;;12.35
69785;BMP280;14177;51.520;6.764;2023-11-19T06:14:08;100611.00;;;12.32
69785;BMP280;14177;51.520;6.764;2023-11-19T06:16:35;100609.25;;;12.33
69785;BMP280;14177;51.520;6.764;2023-11-19T06:19:03;100608.34;;;12.34
69785;BMP280;14177;51.520;6.764;2023-11-19T06:21:31;100616.28;;;12.31
69785;BMP280;14177;51.520;6.764;2023-11-19T06:23:58;100609.50;;;12.27
69785;BMP280;14177;51.520;6.764;2023-11-19T06:26:27;100618.16;;;12.27
69785;BMP280;14177;51.520;6.764;2023-11-19T06:28:54;100619.13;;;12.25
69785;BMP280;14177;51.520;6.764;2023-11-19T06:31:21;100624.47;;;12.22
69785;BMP280;14177;51.520;6.764;2023-11-19T06:33:48;100625.41;;;12.19
69785;BMP280;14177;51.520;6.764;2023-11-19T06:36:15;100623.00;;;12.15
69785;BMP280;14177;51.520;6.764;2023-11-19T06:38:45;100620.41;;;12.15
69785;BMP280;14177;51.520;6.764;2023-11-19T06:41:12;100626.41;;;12.17
69785;BMP280;14177;51.520;6.764;2023-11-19T06:43:39;100622.91;;;12.18
69785;BMP280;14177;51.520;6.764;2023-11-19T06:46:19;100642.81;;;12.19
69785;BMP280;14177;51.520;6.764;2023-11-19T06:48:46;100645.66;;;12.13
69785;BMP280;14177;51.520;6.764;2023-11-19T06:51:13;100656.44;;;12.04
69785;BMP280;14177;51.520;6.764;2023-11-19T06:53:42;100645.34;;;11.99
69785;BMP280;14177;51.520;6.764;2023-11-19T06:56:37;100652.44;;;11.96
69785;BMP280;14177;51.520;6.764;2023-11-19T06:59:04;100650.66;;;11.96
69785;BMP280;14177;51.520;6.764;2023-11-19T07:01:36;100657.88;;;11.90
69785;BMP280;14177;51.520;6.764;2023-11-19T07:04:03;100663.88;;;11.92
69785;BMP280;14177;51.520;6.764;2023-11-19T07:06:36;100650.97;;;11.89
69785;BMP280;14177;51.520;6.764;2023-11-19T07:09:04;100653.56;;;11.89
69785;BMP280;14177;51.520;6.764;2023-11-19T07:11:41;100661.28;;;11.92
69785;BMP280;14177;51.520;6.764;2023-11-19T07:14:08;100656.91;;;11.92
69785;BMP280;14177;51.520;6.764;2023-11-19T07:16:35;100670.03;;;11.89
69785;BMP280;14177;51.520;6.764;2023-11-19T07:19:06;100683.94;;;11.88
69785;BMP280;14177;51.520;6.764;2023-11-19T07:21:33;100683.03;;;11.89
69785;BMP280;14177;51.520;6.764;2023-11-19T07:24:02;100689.09;;;11.90
69785;BMP280;14177;51.520;6.764;2023-11-19T07:26:29;100691.63;;;11.91
69785;BMP280;14177;51.520;6.764;2023-11-19T07:28:56;100700.25;;;11.93
69785;BMP280;14177;51.520;6.764;2023-11-19T07:31:24;100707.34;;;11.90
69785;BMP280;14177;51.520;6.764;2023-11-19T07:33:51;100712.47;;;11.91
69785;BMP280;14177;51.520;6.764;2023-11-19T07:36:17;100703.88;;;11.89
69785;BMP280;14177;51.520;6.764;2023-11-19T07:38:46;100709.97;;;11.88
69785;BMP280;14177;51.520;6.764;2023-11-19T07:41:14;100714.28;;;11.89
69785;BMP280;14177;51.520;6.764;2023-11-19T07:43:43;100713.44;;;11.89
69785;BMP280;14177;51.520;6.764;2023-11-19T07:46:12;100715.94;;;11.92
69785;BMP280;14177;51.520;6.764;2023-11-19T07:48:42;100717.63;;;11.93
69785;BMP280;14177;51.520;6.764;2023-11-19T07:51:11;100725.31;;;11.96
69785;BMP280;14177;51.520;6.764;2023-11-19T07:53:40;100727.03;;;11.97
69785;BMP280;14177;51.520;6.764;2023-11-19T07:56:08;100732.94;;;12.00
69785;BMP280;14177;51.520;6.764;2023-11-19T07:58:36;100725.09;;;12.02
69785;BMP280;14177;51.520;6.764;2023-11-19T08:01:04;100748.34;;;12.06
69785;BMP280;14177;51.520;6.764;2023-11-19T08:03:32;100733.41;;;12.11
69785;BMP280;14177;51.520;6.764;2023-11-19T08:06:03;100731.69;;;12.10
69785;BMP280;14177;51.520;6.764;2023-11-19T08:08:30;100727.16;;;12.15
69785;BMP280;14177;51.520;6.764;2023-11-19T08:11:00;100732.31;;;12.16
69785;BMP280;14177;51.520;6.764;2023-11-19T08:13:27;100723.56;;;12.19
69785;BMP280;14177;51.520;6.764;2023-11-19T08:15:53;100730.34;;;12.23
69785;BMP280;14177;51.520;6.764;2023-11-19T08:18:20;100735.44;;;12.26
69785;BMP280;14177;51.520;6.764;2023-11-19T08:20:48;100744.88;;;12.28
69785;BMP280;14177;51.520;6.764;2023-11-19T08:23:20;100753.34;;;12.33
69785;BMP280;14177;51.520;6.764;2023-11-19T08:25:47;100750.44;;;12.41
69785;BMP280;14177;51.520;6.764;2023-11-19T08:28:14;100741.47;;;12.48
69785;BMP280;14177;51.520;6.764;2023-11-19T08:30:41;100743.97;;;12.51
69785;BMP280;14177;51.520;6.764;2023-11-19T08:33:08;100740.56;;;12.49
69785;BMP280;14177;51.520;6.764;2023-11-19T08:35:35;100746.69;;;12.48
69785;BMP280;14177;51.520;6.764;2023-11-19T08:38:02;100754.75;;;12.42
69785;BMP280;14177;51.520;6.764;2023-11-19T08:40:29;100748.59;;;12.44
69785;BMP280;14177;51.520;6.764;2023-11-19T08:42:56;100749.31;;;12.48
69785;BMP280;14177;51.520;6.764;2023-11-19T08:45:23;100742.16;;;12.53
69785;BMP280;14177;51.520;6.764;2023-11-19T08:47:50;100747.13;;;12.59
69785;BMP280;14177;51.520;6.764;2023-11-19T08:50:17;100752.19;;;12.63
69785;BMP280;14177;51.520;6.764;2023-11-19T08:52:44;100739.75;;;12.70
69785;BMP280;14177;51.520;6.764;2023-11-19T08:55:11;100736.56;;;12.83
69785;BMP280;14177;51.520;6.764;2023-11-19T08:57:40;100744.59;;;13.00
69785;BMP280;14177;51.520;6.764;2023-11-19T09:00:07;100747.69;;;13.10
69785;BMP280;14177;51.520;6.764;2023-11-19T09:02:37;100754.59;;;13.11
69785;BMP280;14177;51.520;6.764;2023-11-19T09:05:06;100760.53;;;13.34
69785;BMP280;14177;51.520;6.764;2023-11-19T09:07:34;100754.31;;;13.56
69785;BMP280;14177;51.520;6.764;2023-11-19T09:10:02;100758.81;;;13.53
69785;BMP280;14177;51.520;6.764;2023-11-19T09:12:29;100752.66;;;13.74
69785;BMP280;14177;51.520;6.764;2023-11-19T09:14:56;100751.84;;;13.73
69785;BMP280;14177;51.520;6.764;2023-11-19T09:17:23;100763.00;;;13.95
69785;BMP280;14177;51.520;6.764;2023-11-19T09:19:50;100760.00;;;13.84
69785;BMP280;14177;51.520;6.764;2023-11-19T09:22:17;100739.44;;;13.78
69785;BMP280;14177;51.520;6.764;2023-11-19T09:24:44;100749.56;;;13.84
69785;BMP280;14177;51.520;6.764;2023-11-19T09:27:11;100723.31;;;13.87
69785;BMP280;14177;51.520;6.764;2023-11-19T09:29:38;100733.69;;;13.70
69785;BMP280;14177;51.520;6.764;2023-11-19T09:32:06;100731.34;;;13.64
69785;BMP280;14177;51.520;6.764;2023-11-19T09:34:34;100745.47;;;13.60
69785;BMP280;14177;51.520;6.764;2023-11-19T09:37:01;100740.38;;;13.57
69785;BMP280;14177;51.520;6.764;2023-11-19T09:39:29;100741.28;;;13.56
69785;BMP280;14177;51.520;6.764;2023-11-19T09:41:55;100746.63;;;13.73
69785;BMP280;14177;51.520;6.764;2023-11-19T09:44:25;100732.53;;;13.96
69785;BMP280;14177;51.520;6.764;2023-11-19T09:46:55;100746.09;;;14.04
69785;BMP280;14177;51.520;6.764;2023-11-19T09:49:26;100755.53;;;14.06
69785;BMP280;14177;51.520;6.764;2023-11-19T09:51:57;100745.22;;;14.03
69785;BMP280;14177;51.520;6.764;2023-11-19T09:54:24;100757.91;;;13.92
69785;BMP280;14177;51.520;6.764;2023-11-19T09:56:52;100745.63;;;13.94
69785;BMP280;14177;51.520;6.764;2023-11-19T09:59:19;100744.09;;;13.90
69785;BMP280;14177;51.520;6.764;2023-11-19T10:01:47;100757.91;;;13.92
69785;BMP280;14177;51.520;6.764;2023-11-19T10:04:15;100742.34;;;13.91
69785;BMP280;14177;51.520;6.764;2023-11-19T10:06:44;100746.91;;;13.86
69785;BMP280;14177;51.520;6.764;2023-11-19T10:09:12;100742.69;;;13.83
69785;BMP280;14177;51.520;6.764;2023-11-19T10:11:42;100734.91;;;13.82
69785;BMP280;14177;51.520;6.764;2023-11-19T10:14:09;100742.38;;;13.89
69785;BMP280;14177;51.520;6.764;2023-11-19T10:16:38;100741.47;;;13.90
69785;BMP280;14177;51.520;6.764;2023-11-19T10:19:05;100735.19;;;13.94
69785;BMP280;14177;51.520;6.764;2023-11-19T10:21:35;100749.94;;;13.95
69785;BMP280;14177;51.520;6.764;2023-11-19T10:24:02;100730.25;;;13.88
69785;BMP280;14177;51.520;6.764;2023-11-19T10:26:30;100729.47;;;13.86
69785;BMP280;14177;51.520;6.764;2023-11-19T10:28:57;100728.84;;;13.81
69785;BMP280;14177;51.520;6.764;2023-11-19T10:31:24;100728.06;;;13.79
69785;BMP280;14177;51.520;6.764;2023-11-19T10:33:53;100729.00;;;13.78
69785;BMP280;14177;51.520;6.764;2023-11-19T10:36:21;100729.94;;;13.76
69785;BMP280;14177;51.520;6.764;2023-11-19T10:38:56;100717.75;;;13.76
69785;BMP280;14177;51.520;6.764;2023-11-19T10:41:31;100726.28;;;13.80
69785;BMP280;14177;51.520;6.764;2023-11-19T10:43:59;100719.25;;;13.82
69785;BMP280;14177;51.520;6.764;2023-11-19T10:46:42;100732.72;;;13.91
69785;BMP280;14177;51.520;6.764;2023-11-19T10:49:10;100715.06;;;13.96
69785;BMP280;14177;51.520;6.764;2023-11-19T10:51:44;100714.94;;;13.99
69785;BMP280;14177;51.520;6.764;2023-11-19T10:54:15;100710.50;;;14.01
69785;BMP280;14177;51.520;6.764;2023-11-19T10:56:58;100715.84;;;13.98
69785;BMP280;14177;51.520;6.764;2023-11-19T10:59:30;100704.72;;;13.95
69785;BMP280;14177;51.520;6.764;2023-11-19T11:02:07;100704.78;;;13.93
69785;BMP280;14177;51.520;6.764;2023-11-19T11:04:40;100728.28;;;13.93
69785;BMP280;14177;51.520;6.764;2023-11-19T11:07:09;100712.69;;;13.92
69785;BMP280;14177;51.520;6.764;2023-11-19T11:09:37;100723.19;;;13.90
69785;BMP280;14177;51.520;6.764;2023-11-19T11:12:06;100714.44;;;13.91
69785;BMP280;14177;51.520;6.764;2023-11-19T11:14:37;100702.25;;;13.92
69785;BMP280;14177;51.520;6.764;2023-11-19T11:17:09;100698.50;;;13.97
69785;BMP280;14177;51.520;6.764;2023-11-19T11:19:36;100711.41;;;14.00
69785;BMP280;14177;51.520;6.764;2023-11-19T11:22:05;100696.25;;;14.08
69785;BMP280;14177;51.520;6.764;2023-11-19T11:25:31;100712.16;;;14.22
69785;BMP280;14177;51.520;6.764;2023-11-19T11:30:46;100704.22;;;14.42
69785;BMP280;14177;51.520;6.764;2023-11-19T11:33:53;100696.31;;;14.44
69785;BMP280;14177;51.520;6.764;2023-11-19T11:36:30;100695.69;;;14.39
69785;BMP280;14177;51.520;6.764;2023-11-19T11:38:59;100691.31;;;14.39
69785;BMP280;14177;51.520;6.764;2023-11-19T11:41:27;100680.72;;;14.42
69785;BMP280;14177;51.520;6.764;2023-11-19T11:43:56;100684.25;;;14.58
69785;BMP280;14177;51.520;6.764;2023-11-19T11:49:05;100678.53;;;15.19
69785;BMP280;14177;51.520;6.764;2023-11-19T11:54:27;100672.09;;;16.22
69785;BMP280;14177;51.520;6.764;2023-11-19T11:57:03;100674.13;;;16.32
69785;BMP280;14177;51.520;6.764;2023-11-19T11:59:43;100680.78;;;15.91
69785;BMP280;14177;51.520;6.764;2023-11-19T12:02:22;100667.63;;;15.61
69785;BMP280;14177;51.520;6.764;2023-11-19T12:04:51;100672.59;;;15.33
69785;BMP280;14177;51.520;6.764;2023-11-19T12:07:24;100666.94;;;15.08
69785;BMP280;14177;51.520;6.764;2023-11-19T12:10:12;100663.53;;;14.89
69785;BMP280;14177;51.520;6.764;2023-11-19T12:12:40;100661.38;;;14.80
69785;BMP280;14177;51.520;6.764;2023-11-19T12:15:09;100669.81;;;14.68
69785;BMP280;14177;51.520;6.764;2023-11-19T12:17:42;100662.44;;;14.59
69785;BMP280;14177;51.520;6.764;2023-11-19T12:20:13;100664.50;;;14.53
69785;BMP280;14177;51.520;6.764;2023-11-19T12:22:42;100643.84;;;14.48
69785;BMP280;14177;51.520;6.764;2023-11-19T12:25:11;100641.22;;;14.48
69785;BMP280;14177;51.520;6.764;2023-11-19T12:27:47;100646.66;;;14.44
69785;BMP280;14177;51.520;6.764;2023-11-19T12:30:25;100659.03;;;14.40
69785;BMP280;14177;51.520;6.764;2023-11-19T12:32:54;100640.31;;;14.31
69785;BMP280;14177;51.520;6.764;2023-11-19T12:35:22;100636.78;;;14.13
69785;BMP280;14177;51.520;6.764;2023-11-19T12:37:51;100632.53;;;13.94
69785;BMP280;14177;51.520;6.764;2023-11-19T12:40:24;100643.75;;;13.77
69785;BMP280;14177;51.520;6.764;2023-11-19T12:42:53;100648.88;;;13.60
69785;BMP280;14177;51.520;6.764;2023-11-19T12:45:22;100632.72;;;13.52
69785;BMP280;14177;51.520;6.764;2023-11-19T12:48:05;100637.38;;;13.46
69785;BMP280;14177;51.520;6.764;2023-11-19T12:50:58;100646.13;;;13.45
69785;BMP280;14177;51.520;6.764;2023-11-19T12:53:27;100648.38;;;13.52
69785;BMP280;14177;51.520;6.764;2023-11-19T12:55:55;100641.69;;;13.65
69785;BMP280;14177;51.520;6.764;2023-11-19T12:58:33;100639.44;;;13.76
69785;BMP280;14177;51.520;6.764;2023-11-19T13:01:06;100655.75;;;14.00
69785;BMP280;14177;51.520;6.764;2023-11-19T13:03:36;100645.28;;;14.18
69785;BMP280;14177;51.520;6.764;2023-11-19T13:06:08;100653.22;;;14.69
69785;BMP280;14177;51.520;6.764;2023-11-19T13:08:40;100647.84;;;14.89
69785;BMP280;14177;51.520;6.764;2023-11-19T13:11:08;100647.06;;;14.70
69785;BMP280;14177;51.520;6.764;2023-11-19T13:16:21;100655.53;;;14.92
69785;BMP280;14177;51.520;6.764;2023-11-19T13:18:48;100656.75;;;15.19
69785;BMP280;14177;51.520;6.764;2023-11-19T13:21:15;100671.13;;;15.44
69785;BMP280;14177;51.520;6.764;2023-11-19T13:23:42;100655.19;;;15.49
69785;BMP280;14177;51.520;6.764;2023-11-19T13:26:11;100656.50;;;15.73
69785;BMP280;14177;51.520;6.764;2023-11-19T13:28:38;100655.22;;;15.32
69785;BMP280;14177;51.520;6.764;2023-11-19T13:31:06;100652.75;;;15.12
69785;BMP280;14177;51.520;6.764;2023-11-19T13:33:33;100654.69;;;15.08
69785;BMP280;14177;51.520;6.764;2023-11-19T13:36:01;100656.75;;;15.19
69785;BMP280;14177;51.520;6.764;2023-11-19T13:38:36;100652.53;;;15.33
69785;BMP280;14177;51.520;6.764;2023-11-19T13:41:04;100635.84;;;15.02
69785;BMP280;14177;51.520;6.764;2023-11-19T13:43:32;100637.22;;;14.75
69785;BMP280;14177;51.520;6.764;2023-11-19T13:45:59;100631.22;;;14.90
69785;BMP280;14177;51.520;6.764;2023-11-19T13:48:26;100627.72;;;15.23
69785;BMP280;14177;51.520;6.764;2023-11-19T13:50:56;100625.22;;;15.54
69785;BMP280;14177;51.520;6.764;2023-11-19T13:53:23;100621.94;;;15.34
69785;BMP280;14177;51.520;6.764;2023-11-19T13:55:53;100630.72;;;14.83
69785;BMP280;14177;51.520;6.764;2023-11-19T13:58:20;100632.59;;;14.46
69785;BMP280;14177;51.520;6.764;2023-11-19T14:00:47;100641.53;;;14.24
69785;BMP280;14177;51.520;6.764;2023-11-19T14:03:14;100627.50;;;14.08
69785;BMP280;14177;51.520;6.764;2023-11-19T14:05:41;100621.06;;;13.96
69785;BMP280;14177;51.520;6.764;2023-11-19T14:08:09;100632.84;;;13.86
69785;BMP280;14177;51.520;6.764;2023-11-19T14:10:51;100619.19;;;13.81
69785;BMP280;14177;51.520;6.764;2023-11-19T14:13:19;100635.13;;;13.75
69785;BMP280;14177;51.520;6.764;2023-11-19T14:15:46;100636.53;;;13.64
69785;BMP280;14177;51.520;6.764;2023-11-19T14:18:17;100626.06;;;13.45